רגע לפני שאתם עוזבים...
יש לנו ב
הצעה מיוחד עבורכם!
מספר שירותים שכדאי שתכירו
| לוחית | שעת חיפוש | ||||
| 1708823 | סובארו יפן | IMPREZA | 1999 | 31/08/2026 | 05:38:31 |
| 1910689 | סובארו יפן | - | 1989 | 31/08/2026 | 05:38:27 |
| 1902581 | עצמי | - | 1981 | 31/08/2026 | 05:38:26 |
| 2243362 | אאודי גרמניה | A3 | 2007 | 31/08/2026 | 05:38:26 |
| 4181610 | פולקסווגן גרמניה | BORA | 2001 | 31/08/2026 | 05:38:23 |
| 1043723 | סובארו יפן | סובארו לאגסי 8.1 גי. | 1997 | 31/08/2026 | 05:38:23 |
| 7747825 | מרצדס גרמניה | C200 CDI | 2008 | 31/08/2026 | 05:38:21 |
| 1624260 | יונדאי קוריאה הדרומית | GETZ | 2006 | 31/08/2026 | 05:38:18 |
| 36733002 | מרצדס ארהב" | GLE350DE | 2021 | 31/08/2026 | 05:38:15 |
| 18899803 | מזדה יפן | MAZDA CX-3 | 2022 | 31/08/2026 | 05:38:13 |
| 55482602 | מ.ג סין | MG4 | 2023 | 31/08/2026 | 05:38:11 |
| 3473170 | טויוטה בריטניה | AVENSIS | 2010 | 31/08/2026 | 05:38:10 |
| 73390301 | יונדאי צ'כיה | TUCSON | 2019 | 31/08/2026 | 05:38:07 |
| 6658532 | פיאט פולין | FIAT 500 1.2 | 2014 | 31/08/2026 | 05:38:05 |
| 62215703 | רנו צרפת | - | 2025 | 31/08/2026 | 05:38:05 |
| 41595204 | ג'אקו סין | JAECOO7 PHEV | 2025 | 31/08/2026 | 05:38:03 |
| 42353303 | יונדאי צ'כיה | TUCSON | 2023 | 31/08/2026 | 05:38:01 |
| 45454704 | ג'י.אמ.סי ארה | - | 2025 | 31/08/2026 | 05:37:59 |
| 8973839 | יונדאי קוריאה הדרומית | IONIQ HYBRID | 2017 | 31/08/2026 | 05:37:55 |
| 7522738 | קיה קוריאה הדרומית | PICANTO | 2016 | 31/08/2026 | 05:37:52 |
| 1956825 | רנו טורקיה | FLUENCE | 2012 | 31/08/2026 | 05:37:48 |
| 87307001 | מיצובישי תאילנד | SPACE STAR | 2020 | 31/08/2026 | 05:37:45 |
| 35101403 | סיטרואן פורטוגל | BERLINGO | 2023 | 31/08/2026 | 05:37:38 |
| 1124614 | ניסאן אנגליה | ALMERA | 2006 | 31/08/2026 | 05:37:35 |
| 66935202 | סובארו יפן | FORESTER | 2021 | 31/08/2026 | 05:37:31 |
| 1181963 | הונדה יפן | CIVIC | 2007 | 31/08/2026 | 05:37:30 |
| 38719301 | סקודה צ'כיה | RAPID | 2018 | 31/08/2026 | 05:37:26 |
| 17520002 | סובארו יפן | BRZ | 2020 | 31/08/2026 | 05:37:13 |
| 58591501 | ניסאן יפן | X-TRAIL | 2018 | 31/08/2026 | 05:37:13 |
| 1483437 | טויוטה צרפת | YARIS | 2016 | 31/08/2026 | 05:37:12 |
| 1203067 | פיאט איטליה | GRANDE PUNTO | 2009 | 31/08/2026 | 05:37:09 |
| 3390665 | מיצובישי יפן | PAJERO | 2008 | 31/08/2026 | 05:37:03 |
| 1087332 | יונדאי קוריאה הדרומית | I25 | 2014 | 31/08/2026 | 05:36:59 |
| 7444458 | רנו ספרד | MEGANE II | 2004 | 31/08/2026 | 05:36:57 |
| 8857038 | קיה קוריאה הדרומית | FORTE | 2016 | 31/08/2026 | 05:36:57 |
| 47372503 | סאן יאנג סין | - | 2023 | 31/08/2026 | 05:36:55 |
| 3297354 | רנו טורקיה | FLUENCE | 2014 | 31/08/2026 | 05:36:51 |
| 2406527 | פיאט איטליה | פונטו 57 XS.L | 1997 | 31/08/2026 | 05:36:50 |
| 1562211 | יונדאי קוריאה הדרומית | I25 | 2013 | 31/08/2026 | 05:36:50 |
| 9307839 | מרצדס בנץ גרמנ | - | 2017 | 31/08/2026 | 05:36:49 |
| 45220901 | טויוטה יפן | LAND CRUISER | 2018 | 31/08/2026 | 05:36:48 |
| 1211061 | שברולט קוריאה הדרומית | AVEO | 2007 | 31/08/2026 | 05:36:47 |
| 1264167 | פיאט איטליה | - | 2009 | 31/08/2026 | 05:36:45 |
| 7511413 | אופל פולין | ASTRA | 2013 | 31/08/2026 | 05:36:43 |
| 40158002 | מרצדס גרמניה | GLC300E 4MATIC | 2021 | 31/08/2026 | 05:36:43 |
| 4192436 | ניסאן בריטניה | ALMERA | 2002 | 31/08/2026 | 05:36:41 |
| 511685 | פיאט איטליה | - | 1978 | 31/08/2026 | 05:36:41 |
| 3759830 | מזדה יפן | MAZDA 3 | 2017 | 31/08/2026 | 05:36:40 |
| 3856054 | סקודה צ'כיה | YETI | 2015 | 31/08/2026 | 05:36:38 |
| 7286384 | ניסאן בריטניה | QASHQAI | 2017 | 31/08/2026 | 05:36:37 |
| 38578404 | מרצדס ארהב" | GLE COUPE | 2025 | 31/08/2026 | 05:36:35 |
| 8030212 | פיג'ו ספרד | 301 | 2013 | 31/08/2026 | 05:36:33 |
| 6310731 | וולבו שוודיה | - | 2015 | 31/08/2026 | 05:36:33 |
| 1512728 | ימהה צרפת | - | 2016 | 31/08/2026 | 05:36:31 |
| 1157466 | שברולט קוריאה הדרומית | AVEO | 2008 | 31/08/2026 | 05:36:30 |
| 40218701 | קרייזלר ארהב" | WRANGLER | 2018 | 31/08/2026 | 05:36:29 |
| 4736208 | הונדה יפן | JAZZ | 2016 | 31/08/2026 | 05:36:28 |
| 5280613 | סאן יאנג טיואן | - | 2012 | 31/08/2026 | 05:36:25 |
| 63857804 | ג'אקו סין | JAECOO7 PHEV | 2026 | 31/08/2026 | 05:36:25 |
| 3789479 | ניסאן הודו | MICRA | 2012 | 31/08/2026 | 05:36:23 |
| 2956176 | דאף-הולנד | - | 2012 | 31/08/2026 | 05:36:21 |
| 81363503 | סיאט ספרד | ARONA | 2024 | 31/08/2026 | 05:36:20 |
| 9539431 | ניסאן בריטניה | JUKE | 2014 | 31/08/2026 | 05:36:18 |
| 25042401 | שברולט קוריאה הדרומית | SPARK | 2018 | 31/08/2026 | 05:36:18 |
| 4699012 | אופל ספרד | CORSA | 2013 | 31/08/2026 | 05:36:17 |
| 8032454 | ב מ וו גרמניה | 520I | 2015 | 31/08/2026 | 05:36:13 |
| 2961965 | שברולט קוריאה הדרומית | AVEO | 2008 | 31/08/2026 | 05:36:10 |
| 39192903 | סובארו יפן | FORESTER | 2023 | 31/08/2026 | 05:36:08 |
| 3790576 | יונדאי צ'כיה | I30 | 2011 | 31/08/2026 | 05:36:07 |
| 79457502 | מזדה יפן | MAZDA3 | 2022 | 31/08/2026 | 05:36:06 |
| 1629133 | ניסאן הודו | MICRA | 2015 | 31/08/2026 | 05:36:03 |
| 4658567 | קיה קוריאה הדרומית | RIO | 2009 | 31/08/2026 | 05:36:01 |
| 3400430 | מזדה יפן | MAZDA 3 | 2017 | 31/08/2026 | 05:35:59 |
| 8425568 | מזדה יפן | MAZDA 3 | 2010 | 31/08/2026 | 05:35:58 |
| 4287756 | פולקסווגן גרמנ | GOLF | 2005 | 31/08/2026 | 05:35:58 |
| 5108632 | טויוטה טורקיה | COROLLA | 2015 | 31/08/2026 | 05:35:57 |
| 62776003 | יונדאי קוריאה הדרומית | ELANTRA HEV | 2024 | 31/08/2026 | 05:35:53 |
| 4487900 | ג'י.אמ.סי ארה | - | 1997 | 31/08/2026 | 05:35:51 |
| 68593304 | ג'אקו סין | JAECOO 5 HEV | 2026 | 31/08/2026 | 05:35:48 |
| 58996202 | אאודי גרמניה | Q2 | 2021 | 31/08/2026 | 05:35:45 |
| 4020069 | מזדה יפן | MAZDA 6 | 2009 | 31/08/2026 | 05:35:44 |
| 76090602 | יונדאי קוריאה הדרומית | IONIQ HYBRID | 2022 | 31/08/2026 | 05:35:43 |
| 1415462 | טויוטה יפן | COROLLA | 2007 | 31/08/2026 | 05:35:43 |
| 2292978 | סוזוקי יפן | SX4 | 2011 | 31/08/2026 | 05:35:41 |
| 50000804 | טויוטה יפן | COROLLA CROSS | 2026 | 31/08/2026 | 05:35:40 |
| 46429201 | טויוטה טורקיה | C-HR HYBRID | 2019 | 31/08/2026 | 05:35:38 |
| 44382202 | ב מ וו ארהב" | X5 XDRIVE45E | 2021 | 31/08/2026 | 05:35:38 |
| 38802801 | סיאט ספרד | LEON CUPRA FL | 2018 | 31/08/2026 | 05:35:38 |
| 5820019 | טויוטה בריטניה | CARINA | 1997 | 31/08/2026 | 05:35:38 |
| 6114231 | הונדה בריטניה | CIVIC | 2015 | 31/08/2026 | 05:35:34 |
| 73012401 | מרצדס גרמניה | C180 | 2019 | 31/08/2026 | 05:35:33 |
| 1088463 | איווקו איטליה | - | 2008 | 31/08/2026 | 05:35:29 |
| 9936787 | פולאריס מקסיקו | - | 2021 | 31/08/2026 | 05:35:28 |
| 35980601 | פיאט איטליה | - | 2018 | 31/08/2026 | 05:35:27 |
| 7410339 | מרצדס ארהב" | GLE400 4MATIC | 2017 | 31/08/2026 | 05:35:25 |
| 47278302 | מזדה תאילנד | MAZDA 2 | 2021 | 31/08/2026 | 05:35:23 |
| 6350513 | פיגו איטליה | - | 2012 | 31/08/2026 | 05:35:23 |
| 1035538 | סוזוקי הונגריה | VITARA | 2016 | 31/08/2026 | 05:35:18 |
| 4745708 | הונדה טורקיה | CIVIC | 2017 | 31/08/2026 | 05:35:17 |
| 67846501 | רנו צרפת | TRAFIC | 2019 | 31/08/2026 | 05:35:16 |
| 11498202 | פיגו איטליה | - | 2021 | 31/08/2026 | 05:35:15 |
| 7364276 | פולקסווגן גרמניה | GOLF | 2012 | 31/08/2026 | 05:35:13 |
| 8247181 | טויוטה תאילנד | HILUX | 2016 | 31/08/2026 | 05:35:13 |
| 4155513 | סובארו יפן | IMPREZA | 2006 | 31/08/2026 | 05:35:11 |
| 59076204 | לקסוס יפן | LEXUS NX350H | 2026 | 31/08/2026 | 05:35:09 |
| 93469201 | סקודה צ'כיה | RAPID | 2014 | 31/08/2026 | 05:35:08 |
| 1167414 | ניסאן בריטניה | ALMERA | 2006 | 31/08/2026 | 05:35:07 |
| 4689263 | פורד ספרד | FOCUS | 2008 | 31/08/2026 | 05:35:07 |
| 2888763 | סובארו יפן | IMPREZA | 2008 | 31/08/2026 | 05:35:06 |
| 45147701 | טויוטה טורקיה | COROLLA | 2018 | 31/08/2026 | 05:35:03 |
| 2913839 | אופל בריטניה | ASTRA ST | 2016 | 31/08/2026 | 05:35:03 |
| 63238502 | יונדאי קוריאה הדרומית | IONIQ HYBRID | 2022 | 31/08/2026 | 05:35:01 |
| 6621112 | ניסאן בריטניה | QASHQAI PLUS 2 | 2013 | 31/08/2026 | 05:34:59 |
| 4030437 | מיצובישי יפן | OUTLANDER | 2016 | 31/08/2026 | 05:34:58 |
| 731975 | נצר סירני | - | 1973 | 31/08/2026 | 05:34:57 |
| 64512401 | אופל גרמניה | ADAM | 2019 | 31/08/2026 | 05:34:55 |
| 69407603 | דאף אנגליה | - | 2024 | 31/08/2026 | 05:34:51 |
| 3347338 | סקודה צ'כיה | OCTAVIA S | 2016 | 31/08/2026 | 05:34:50 |
| 4146478 | וולבו בלגיה | XC60 T6 | 2012 | 31/08/2026 | 05:34:47 |
| 6324185 | קיה סלובקיה | CEED | 2017 | 31/08/2026 | 05:34:45 |
| 15434604 | טויוטה ספרד | TOYOTA CITY | 2025 | 31/08/2026 | 05:34:43 |
| 1016550 | טויוטה יפן | PRADO | 2002 | 31/08/2026 | 05:34:43 |
| 1181967 | פיאט טורקיה | FIORINO 1.4 | 2009 | 31/08/2026 | 05:34:42 |
| 9795786 | רנו צרפת | - | 2017 | 31/08/2026 | 05:34:41 |
| 1411276 | מזדה יפן | MAZDA 6 | 2013 | 31/08/2026 | 05:34:38 |
| 1998462 | פולקסווגן גרמניה | GOLF | 2008 | 31/08/2026 | 05:34:35 |
| 4864364 | ניסאן מקסיקו | TIIDA | 2008 | 31/08/2026 | 05:34:34 |
| 3822276 | יונדאי קוריאה הדרומית | IX35 | 2011 | 31/08/2026 | 05:34:32 |
| 4624836 | טויוטה יפן | COROLLA | 2002 | 31/08/2026 | 05:34:31 |
| 79103001 | וולבו בלגיה | - | 2021 | 31/08/2026 | 05:34:29 |
| 9315833 | יונדאי קוריאה הדרומית | I35 | 2015 | 31/08/2026 | 05:34:25 |
| 1699337 | טויוטה תאילנד | HILUX | 2016 | 31/08/2026 | 05:34:24 |
| 40850104 | קיה קוריאה הדרומית | SELTOS | 2025 | 31/08/2026 | 05:34:21 |
| 1187734 | מרצדס ספרד | VITO 114 CDI | 2015 | 31/08/2026 | 05:34:13 |
| 2832323 | סובארו יפן | IMPREZA TUR NEW | 2002 | 31/08/2026 | 05:34:09 |
| 2895333 | רנו ספרד | CAPTUR | 2015 | 31/08/2026 | 05:34:09 |
| 1101376 | מזדה יפן | MAZDA 2 | 2013 | 31/08/2026 | 05:34:07 |
| 34867604 | קופרה ספרד | FORMENTOR VZ | 2025 | 31/08/2026 | 05:34:05 |
| 3822276 | יונדאי קוריאה הדרומית | IX35 | 2011 | 31/08/2026 | 05:34:04 |
| 39567004 | צ'רי סין | TIGGO 7 PRO | 2025 | 31/08/2026 | 05:34:03 |
| 4746311 | יונדאי הודו | I10 | 2013 | 31/08/2026 | 05:34:03 |
| 2844875 | שברולט ד.קוריא | CRUZE 1.6 LS | 2011 | 31/08/2026 | 05:34:01 |
| 5594016 | ב מ וו גרמניה | 320/I | 2003 | 31/08/2026 | 05:33:59 |
| 8026362 | מזדה יפן | MAZDA 3 | 2008 | 31/08/2026 | 05:33:57 |
| 5886835 | פיג'ו צרפת | 206 | 2002 | 31/08/2026 | 05:33:54 |
| 4538030 | לקסוס יפן | LEXUS IS300H | 2014 | 31/08/2026 | 05:33:53 |
| 43875302 | טויוטה טורקיה | COROLLA HSD SDN | 2021 | 31/08/2026 | 05:33:52 |
| 63667102 | יונדאי צ'כיה | TUCSON | 2022 | 31/08/2026 | 05:33:50 |
| 5354075 | מזדה יפן | CX-5 | 2012 | 31/08/2026 | 05:33:47 |
| 27738403 | מסגרית ר.אליאס | - | 2022 | 31/08/2026 | 05:33:46 |
| 3824368 | רנו טורקיה | MEGANE II | 2008 | 31/08/2026 | 05:33:41 |
| 2815858 | סקניה-הולנד | - | 2017 | 31/08/2026 | 05:33:40 |
| 18743801 | רנו צרפת | - | 2017 | 31/08/2026 | 05:33:37 |
| 13624101 | קיה קוריאה הדרומית | PICANTO | 2018 | 31/08/2026 | 05:33:35 |
| 48817002 | פיאג'ו איטליה | - | 2024 | 31/08/2026 | 05:33:32 |
| 1706933 | רנו צרפת | - | 2015 | 31/08/2026 | 05:33:31 |
| 9868554 | מזדה יפן | MAZDA 3 | 2016 | 31/08/2026 | 05:33:30 |
| 1740033 | ניסאן יפן | INFINITI Q50 | 2016 | 31/08/2026 | 05:33:27 |
| 85315201 | סאן יאנג סין | - | 2019 | 31/08/2026 | 05:33:26 |
| 3339254 | ניסאן בריטניה | JUKE | 2014 | 31/08/2026 | 05:33:22 |
| 43440901 | קיה סלובקיה | CEED | 2019 | 31/08/2026 | 05:33:21 |
| 3706414 | טויוטה יפן | LAND CRUISER | 2006 | 31/08/2026 | 05:33:19 |
| 6736776 | סיאט ספרד | IBIZA | 2012 | 31/08/2026 | 05:33:17 |
| 15905704 | טויוטה צרפת | YARIS CROSS HSD | 2025 | 31/08/2026 | 05:33:15 |
| 7046070 | הונדה טורקיה | CIVIC | 2010 | 31/08/2026 | 05:33:12 |
| 11111104 | סקודה צ'כיה | KAROQ FL | 2024 | 31/08/2026 | 05:33:05 |
| 4589054 | פולקסווגן ספרד | POLO | 2015 | 31/08/2026 | 05:32:59 |
| 1071233 | איווקו איטליה | - | 2015 | 31/08/2026 | 05:32:57 |
| 5595950 | אופל גרמניה | OMEGA-B | 2002 | 31/08/2026 | 05:32:53 |
| 46017501 | טויוטה צרפת | YARIS | 2019 | 31/08/2026 | 05:32:53 |
| 8106422 | יונדאי קוריאה | - | 2011 | 31/08/2026 | 05:32:51 |
| 1005667 | פיאט טורקיה | DOBLO | 2008 | 31/08/2026 | 05:32:47 |
| 1195838 | קרייזלר ארהב" | GRAND CHEROKEE | 2016 | 31/08/2026 | 05:32:47 |
| 1577878 | פיאט איטליה | PUNTO 1.4 | 2011 | 31/08/2026 | 05:32:45 |
| 38466401 | סוזוקי יפן | SWIFT | 2018 | 31/08/2026 | 05:32:41 |
| 22697102 | סקודה צ'כיה | OCTAVIA | 2020 | 31/08/2026 | 05:32:41 |
| 8604679 | טויוטה צרפת | YARIS | 2012 | 31/08/2026 | 05:32:40 |
| 41389504 | מרצדס בנץ גרמנ | - | 2025 | 31/08/2026 | 05:32:40 |
| 4189766 | מיצובישי יפן | LANCER | 2008 | 31/08/2026 | 05:32:39 |
| 9734571 | נגררי השרון | - | 2010 | 31/08/2026 | 05:32:37 |
| 34698904 | צ'רי סין | TIGGO8PRO PHEV | 2025 | 31/08/2026 | 05:32:34 |
| 32484303 | סאן יאנג סין | - | 2023 | 31/08/2026 | 05:32:32 |
| 17321604 | מיני אנגליה | COOPER S | 2024 | 31/08/2026 | 05:32:31 |
| 7025933 | דאף-הולנד | - | 2016 | 31/08/2026 | 05:32:27 |
| 26035804 | איסוזו תאילנד | D-MAX | 2025 | 31/08/2026 | 05:32:25 |
| 5409160 | פיאט פולין | PANDA | 2007 | 31/08/2026 | 05:32:22 |
| 24961703 | יונדאי קוריאה הדרומית | ELANTRA HEV | 2023 | 31/08/2026 | 05:32:21 |
| 47780402 | פיאגיו | - | 2021 | 31/08/2026 | 05:32:17 |
| 2402110 | מיצובישי יפן | PAJERO | 2001 | 31/08/2026 | 05:32:15 |
| 81067002 | קיה סלובקיה | SPORTAGE | 2021 | 31/08/2026 | 05:32:13 |
| 4201680 | פולקסווגן גרמניה | GOLF | 2017 | 31/08/2026 | 05:32:12 |
| 6719632 | מ א ן גרמניה | - | 2015 | 31/08/2026 | 05:32:08 |
| 78480302 | יונדאי קוריאה הדרומית | KONA HYBRID | 2022 | 31/08/2026 | 05:32:07 |
| 9310671 | קרייזלר ארהב" | - | 2010 | 31/08/2026 | 05:32:02 |
| 4294839 | סיטרואן ספרד | C4 PICASSO | 2016 | 31/08/2026 | 05:32:01 |
| 8272780 | פיאט איטליה | 500X | 2017 | 31/08/2026 | 05:32:01 |
| 8904575 | מזדה יפן | MAZDA 3 | 2013 | 31/08/2026 | 05:32:00 |
| 2923165 | שברולט ארהב" | - | 2008 | 31/08/2026 | 05:31:57 |
| 1047039 | דאף אנגליה | - | 2017 | 31/08/2026 | 05:31:57 |
| 9940961 | קרייזלר ארהב" | - | 2008 | 31/08/2026 | 05:31:51 |